Time;durP1;ratioP1;P1;durP2;ratioP2;P2;SDS_P1;SDS_P2;PMS_P1;PMS_P2;Temp;Humidity;BMP_temperature;BMP_pressure;BME280_temperature;BME280_humidity;BME280_pressure;Samples;Min_cycle;Max_cycle;Signal;HPM_P1;HPM_P2
2022/05/24 00:01:33;;;;;;;;;;;;;;;;;;5051349;28;19940;-70
2022/05/24 00:04:18;;;;;;;;;;;;;;;;;;5022145;28;19909;-70
2022/05/24 00:07:04;;;;;;;;;;;;;;;;;;5052016;28;19960;-70
2022/05/24 00:09:49;;;;;;;;;;;;;;;;;;5057307;28;19908;-70
2022/05/24 00:12:35;;;;;;;;;;;;;;;;;;5048541;28;19908;-69
2022/05/24 00:15:23;;;;;;;;;;;;;;;;;;5042510;28;20368;-69
2022/05/24 00:18:08;;;;;;;;;;;;;;;;;;5050144;28;19945;-71
2022/05/24 00:20:54;;;;;;;;;;;;;;;;;;5037974;28;19920;-68
2022/05/24 00:23:39;;;;;;;;;;;;;;;;;;5025835;28;19912;-66
2022/05/24 00:26:24;;;;;;;;;;;;;;;;;;5051292;28;20370;-67
2022/05/24 00:29:10;;;;;;;;;;;;;;;;;;5066280;28;19947;-68
2022/05/24 00:31:55;;;;;;;;;;;;;;;;;;5041633;28;20403;-67
2022/05/24 00:34:41;;;;;;;;;;;;;;;;;;5043593;28;19937;-75
2022/05/24 00:37:26;;;;;;;;;;;;;;;;;;5055375;28;19924;-70
2022/05/24 00:40:12;;;;;;;;;;;;;;;;;;5044209;28;19908;-69
2022/05/24 00:42:57;;;;;;;;;;;;;;;;;;5072042;28;19909;-70
2022/05/24 00:45:43;;;;;;;;;;;;;;;;;;5045364;28;19913;-68
2022/05/24 00:48:28;;;;;;;;;;;;;;;;;;5040369;28;19915;-69
2022/05/24 00:51:13;;;;;;;;;;;;;;;;;;5056139;28;19996;-69
2022/05/24 00:53:59;;;;;;;;;;;;;;;;;;5054861;28;20356;-71
2022/05/24 00:56:44;;;;;;;;;;;;;;;;;;5041023;28;19927;-70
2022/05/24 00:59:30;;;;;;;;;;;;;;;;;;5055220;28;19916;-71
2022/05/24 01:02:15;;;;;;;;;;;;;;;;;;5055934;28;19913;-70
2022/05/24 01:05:01;;;;;;;;;;;;;;;;;;5042289;28;20254;-70
2022/05/24 01:07:46;;;;;;;;;;;;;;;;;;5053891;28;19920;-71
2022/05/24 01:10:32;;;;;;;;;;;;;;;;;;5055670;28;19908;-71
2022/05/24 01:13:17;;;;;;;;;;;;;;;;;;5053964;28;19996;-69
2022/05/24 01:16:02;;;;;;;;;;;;;;;;;;5052394;28;20004;-68
2022/05/24 01:18:48;;;;;;;;;;;;;;;;;;5055366;28;19944;-69
2022/05/24 01:21:33;;;;;;;;;;;;;;;;;;5040442;28;19920;-68
2022/05/24 01:24:20;;;;;;;;;;;;;;;;;;5055489;28;19920;-68
2022/05/24 01:27:05;;;;;;;;;;;;;;;;;;5055087;28;19919;-68
2022/05/24 01:29:51;;;;;;;;;;;;;;;;;;5054287;28;19916;-71
2022/05/24 01:38:45;;;;;;;;;;;;;;;;;;5067849;28;20260;-72
2022/05/24 01:41:30;;;;;;;;;;;;;;;;;;5052955;28;19908;-72
2022/05/24 01:44:16;;;;;;;;;;;;;;;;;;5049216;28;19912;-71
2022/05/24 01:47:01;;;;;;;;;;;;;;;;;;5054622;28;20019;-71
2022/05/24 01:49:47;;;;;;;;;;;;;;;;;;5066656;28;19960;-69
2022/05/24 01:52:32;;;;;;;;;;;;;;;;;;5040145;28;19913;-77
2022/05/24 01:55:18;;;;;;;;;;;;;;;;;;5043128;28;19913;-76
2022/05/24 01:58:03;;;;;;;;;;;;;;;;;;5051997;28;20300;-76
2022/05/24 02:00:48;;;;;;;;;;;;;;;;;;5038519;28;19909;-75
2022/05/24 02:03:34;;;;;;;;;;;;;;;;;;5062984;28;19916;-78
2022/05/24 02:06:19;;;;;;;;;;;;;;;;;;5054358;28;19923;-78
2022/05/24 02:09:05;;;;;;;;;;;;;;;;;;5041215;28;20012;-73
2022/05/24 02:11:50;;;;;;;;;;;;;;;;;;5043074;28;20283;-72
2022/05/24 02:14:36;;;;;;;;;;;;;;;;;;5053309;28;19921;-73
2022/05/24 02:17:21;;;;;;;;;;;;;;;;;;5039040;28;19943;-71
2022/05/24 02:20:07;;;;;;;;;;;;;;;;;;5053743;28;19967;-72
2022/05/24 02:22:52;;;;;;;;;;;;;;;;;;5053886;28;19913;-73
2022/05/24 02:25:38;;;;;;;;;;;;;;;;;;5033965;28;19908;-69
2022/05/24 02:28:23;;;;;;;;;;;;;;;;;;5053979;28;20330;-73
2022/05/24 02:31:09;;;;;;;;;;;;;;;;;;5053389;28;19916;-73
2022/05/24 02:33:54;;;;;;;;;;;;;;;;;;5053260;28;20014;-71
2022/05/24 02:36:39;;;;;;;;;;;;;;;;;;5039101;28;19917;-72
2022/05/24 02:39:25;;;;;;;;;;;;;;;;;;5041971;28;19910;-72
2022/05/24 02:42:11;;;;;;;;;;;;;;;;;;5039308;28;19910;-72
2022/05/24 02:44:56;;;;;;;;;;;;;;;;;;5046513;28;19920;-71
2022/05/24 02:47:42;;;;;;;;;;;;;;;;;;5040416;28;19912;-71
2022/05/24 02:50:27;;;;;;;;;;;;;;;;;;5041611;28;19917;-75
2022/05/24 02:53:12;;;;;;;;;;;;;;;;;;5046683;28;19913;-72
2022/05/24 02:55:58;;;;;;;;;;;;;;;;;;5053071;28;19921;-73
2022/05/24 02:58:43;;;;;;;;;;;;;;;;;;5053213;28;20263;-72
2022/05/24 03:01:29;;;;;;;;;;;;;;;;;;5053416;28;19909;-72
2022/05/24 03:04:14;;;;;;;;;;;;;;;;;;5051784;28;20112;-67
2022/05/24 03:10:24;;;;;;;;;;;;;;;;;;5024815;28;19948;-70
2022/05/24 03:16:13;;;;;;;;;;;;;;;;;;5038435;28;19925;-71
2022/05/24 03:18:59;;;;;;;;;;;;;;;;;;5052747;28;19915;-70
2022/05/24 03:21:46;;;;;;;;;;;;;;;;;;5053428;28;19909;-68
2022/05/24 03:24:31;;;;;;;;;;;;;;;;;;5052624;28;20257;-69
2022/05/24 03:27:17;;;;;;;;;;;;;;;;;;5052382;28;19920;-69
2022/05/24 03:30:02;;;;;;;;;;;;;;;;;;5052664;28;19916;-68
2022/05/24 03:32:48;;;;;;;;;;;;;;;;;;5051729;28;19909;-69
2022/05/24 03:35:33;;;;;;;;;;;;;;;;;;5051784;28;19924;-68
2022/05/24 03:38:19;;;;;;;;;;;;;;;;;;5052947;28;19915;-68
2022/05/24 03:41:04;;;;;;;;;;;;;;;;;;5051787;28;19937;-69
2022/05/24 03:43:50;;;;;;;;;;;;;;;;;;5103707;22;19924;-66
2022/05/24 03:46:35;;;;;;;;;;;;;;;;;;5110393;28;19911;-68
2022/05/24 03:49:20;;;;;;;;;;;;;;;;;;5112222;28;19907;-68
2022/05/24 03:52:06;;;;;;;;;;;;;;;;;;5098558;28;20426;-68
2022/05/24 03:54:51;;;;;;;;;;;;;;;;;;5095607;28;19958;-68
2022/05/24 04:00:41;;;;;;;;;;;;;;;;;;5103561;28;19915;-63
2022/05/24 04:03:27;;;;;;;;;;;;;;;;;;5090747;28;19994;-64
2022/05/24 04:06:14;;;;;;;;;;;;;;;;;;5110793;28;20362;-63
2022/05/24 04:09:00;;;;;;;;;;;;;;;;;;5101543;28;19943;-63
2022/05/24 04:11:45;;;;;;;;;;;;;;;;;;5096831;28;19915;-64
2022/05/24 04:14:31;;;;;;;;;;;;;;;;;;5105286;28;19953;-63
2022/05/24 04:17:16;;;;;;;;;;;;;;;;;;5104262;28;20374;-67
2022/05/24 04:20:02;;;;;;;;;;;;;;;;;;5093330;28;19914;-62
2022/05/24 04:22:47;;;;;;;;;;;;;;;;;;5109553;28;20144;-62
2022/05/24 04:25:33;;;;;;;;;;;;;;;;;;5098036;28;19964;-63
2022/05/24 04:28:21;;;;;;;;;;;;;;;;;;5110647;28;19970;-62
2022/05/24 04:31:07;;;;;;;;;;;;;;;;;;5090099;28;20259;-63
2022/05/24 04:33:52;;;;;;;;;;;;;;;;;;5079226;28;20001;-72
2022/05/24 04:36:38;;;;;;;;;;;;;;;;;;5097985;28;19969;-67
2022/05/24 04:39:23;;;;;;;;;;;;;;;;;;5063596;28;19915;-69
2022/05/24 04:42:24;;;;;;;;;;;;;;;;;;5092622;28;19920;-69
2022/05/24 04:45:10;;;;;;;;;;;;;;;;;;5098577;28;19908;-69
2022/05/24 04:47:55;;;;;;;;;;;;;;;;;;5080932;28;20401;-69
2022/05/24 04:50:40;;;;;;;;;;;;;;;;;;5091555;28;19908;-71
2022/05/24 04:53:26;;;;;;;;;;;;;;;;;;5091066;28;20260;-73
2022/05/24 04:56:11;;;;;;;;;;;;;;;;;;5092168;28;19923;-69
2022/05/24 04:58:57;;;;;;;;;;;;;;;;;;5090840;28;19962;-67
2022/05/24 05:01:42;;;;;;;;;;;;;;;;;;5077030;28;19915;-69
2022/05/24 05:04:28;;;;;;;;;;;;;;;;;;5085492;28;19916;-68
2022/05/24 05:07:15;;;;;;;;;;;;;;;;;;5080335;28;19934;-68
2022/05/24 05:10:01;;;;;;;;;;;;;;;;;;5090729;28;20393;-68
2022/05/24 05:12:47;;;;;;;;;;;;;;;;;;5090545;28;19912;-75
2022/05/24 05:15:34;;;;;;;;;;;;;;;;;;5080313;28;19939;-67
2022/05/24 05:18:20;;;;;;;;;;;;;;;;;;5094531;28;19907;-67
2022/05/24 05:21:06;;;;;;;;;;;;;;;;;;5094713;28;19995;-67
2022/05/24 05:23:52;;;;;;;;;;;;;;;;;;5077899;28;20344;-66
2022/05/24 05:26:37;;;;;;;;;;;;;;;;;;5089916;28;20278;-67
2022/05/24 05:32:30;;;;;;;;;;;;;;;;;;5076076;28;19913;-64
2022/05/24 05:35:15;;;;;;;;;;;;;;;;;;5062122;28;20367;-64
2022/05/24 05:38:01;;;;;;;;;;;;;;;;;;5094820;28;19908;-65
2022/05/24 05:40:46;;;;;;;;;;;;;;;;;;5093884;28;19914;-63
2022/05/24 05:43:32;;;;;;;;;;;;;;;;;;5094754;28;19916;-62
2022/05/24 05:46:17;;;;;;;;;;;;;;;;;;5094422;28;20291;-64
2022/05/24 05:49:03;;;;;;;;;;;;;;;;;;5096122;28;20325;-64
2022/05/24 05:51:49;;;;;;;;;;;;;;;;;;5110011;28;19912;-75
2022/05/24 05:54:35;;;;;;;;;;;;;;;;;;5094279;28;19991;-75
2022/05/24 05:57:20;;;;;;;;;;;;;;;;;;5093542;28;19916;-75
2022/05/24 06:00:08;;;;;;;;;;;;;;;;;;5093678;28;20286;-76
2022/05/24 06:02:53;;;;;;;;;;;;;;;;;;5094282;28;19908;-76
2022/05/24 06:05:39;;;;;;;;;;;;;;;;;;5094463;28;19913;-73
2022/05/24 06:08:24;;;;;;;;;;;;;;;;;;5093010;28;19933;-64
2022/05/24 06:11:09;;;;;;;;;;;;;;;;;;5094826;28;20270;-64
2022/05/24 06:13:55;;;;;;;;;;;;;;;;;;5099667;28;19908;-64
2022/05/24 06:16:41;;;;;;;;;;;;;;;;;;5096201;28;19923;-64
2022/05/24 06:19:27;;;;;;;;;;;;;;;;;;5086409;28;19919;-65
2022/05/24 06:22:12;;;;;;;;;;;;;;;;;;5107261;28;20352;-64
2022/05/24 06:24:58;;;;;;;;;;;;;;;;;;5078580;28;19915;-68
2022/05/24 06:27:43;;;;;;;;;;;;;;;;;;5104131;28;19909;-67
2022/05/24 06:30:29;;;;;;;;;;;;;;;;;;5093172;28;19912;-66
2022/05/24 06:33:14;;;;;;;;;;;;;;;;;;5079626;28;19916;-67
2022/05/24 06:36:00;;;;;;;;;;;;;;;;;;5066342;28;19916;-67
2022/05/24 06:38:45;;;;;;;;;;;;;;;;;;5092293;28;19915;-65
2022/05/24 06:41:31;;;;;;;;;;;;;;;;;;5078729;28;20002;-68
2022/05/24 06:44:16;;;;;;;;;;;;;;;;;;5093833;28;19923;-64
2022/05/24 06:47:01;;;;;;;;;;;;;;;;;;5078467;28;19908;-72
2022/05/24 06:49:47;;;;;;;;;;;;;;;;;;5101260;28;20031;-70
2022/05/24 06:52:33;;;;;;;;;;;;;;;;;;5079168;28;19914;-70
2022/05/24 06:55:20;;;;;;;;;;;;;;;;;;5082967;28;19963;-69
2022/05/24 06:58:05;;;;;;;;;;;;;;;;;;5092513;28;19915;-69
2022/05/24 07:03:55;;;;;;;;;;;;;;;;;;5082896;28;20006;-69
2022/05/24 07:06:40;;;;;;;;;;;;;;;;;;5092576;28;20388;-70
2022/05/24 07:09:31;;;;;;;;;;;;;;;;;;5105152;28;19915;-69
2022/05/24 07:12:16;;;;;;;;;;;;;;;;;;5084264;28;19908;-70
2022/05/24 07:15:02;;;;;;;;;;;;;;;;;;5094872;28;19915;-69
2022/05/24 07:17:47;;;;;;;;;;;;;;;;;;5091851;28;20504;-70
2022/05/24 07:20:33;;;;;;;;;;;;;;;;;;5071493;28;19909;-68
2022/05/24 07:23:18;;;;;;;;;;;;;;;;;;5073458;28;19951;-63
2022/05/24 07:26:04;;;;;;;;;;;;;;;;;;5093447;28;19915;-63
2022/05/24 07:28:50;;;;;;;;;;;;;;;;;;5092956;28;19908;-63
2022/05/24 07:31:38;;;;;;;;;;;;;;;;;;5092091;28;19908;-63
2022/05/24 07:34:23;;;;;;;;;;;;;;;;;;5081434;28;20582;-63
2022/05/24 07:37:09;;;;;;;;;;;;;;;;;;5091102;28;20018;-63
2022/05/24 07:46:02;;;;;;;;;;;;;;;;;;5093627;28;20287;-76
2022/05/24 07:48:47;;;;;;;;;;;;;;;;;;5077118;28;19962;-75
2022/05/24 07:51:33;;;;;;;;;;;;;;;;;;5077551;28;20278;-75
2022/05/24 07:54:18;;;;;;;;;;;;;;;;;;5091931;28;19919;-75
2022/05/24 07:57:08;;;;;;;;;;;;;;;;;;5087202;28;21391;-69
2022/05/24 07:59:53;;;;;;;;;;;;;;;;;;5091406;28;19961;-69
2022/05/24 08:02:38;;;;;;;;;;;;;;;;;;5085329;28;20294;-69
2022/05/24 08:05:24;;;;;;;;;;;;;;;;;;5079513;28;19915;-70
2022/05/24 08:08:10;;;;;;;;;;;;;;;;;;5091219;28;19912;-69
2022/05/24 08:10:55;;;;;;;;;;;;;;;;;;5093221;28;19915;-68
2022/05/24 08:13:41;;;;;;;;;;;;;;;;;;5091283;28;19989;-69
2022/05/24 08:16:26;;;;;;;;;;;;;;;;;;5092573;28;19942;-70
2022/05/24 08:19:11;;;;;;;;;;;;;;;;;;5102416;28;19996;-67
2022/05/24 08:21:58;;;;;;;;;;;;;;;;;;5091541;28;20013;-69
2022/05/24 08:24:43;;;;;;;;;;;;;;;;;;5091587;28;19966;-67
2022/05/24 08:27:29;;;;;;;;;;;;;;;;;;5078318;28;19912;-66
2022/05/24 08:30:14;;;;;;;;;;;;;;;;;;5091394;28;19912;-67
2022/05/24 08:33:04;;;;;;;;;;;;;;;;;;5091343;28;20372;-66
2022/05/24 08:35:50;;;;;;;;;;;;;;;;;;5091594;28;19920;-68
2022/05/24 08:38:35;;;;;;;;;;;;;;;;;;5091761;28;19908;-69
2022/05/24 08:41:21;;;;;;;;;;;;;;;;;;5091408;28;19908;-69
2022/05/24 08:50:15;;;;;;;;;;;;;;;;;;5107938;28;19911;-69
2022/05/24 08:53:00;;;;;;;;;;;;;;;;;;5089631;28;20028;-69
2022/05/24 08:55:47;;;;;;;;;;;;;;;;;;5096645;28;20255;-74
2022/05/24 08:58:33;;;;;;;;;;;;;;;;;;5068699;28;20013;-74
2022/05/24 09:01:18;;;;;;;;;;;;;;;;;;5064698;28;19951;-75
2022/05/24 09:04:03;;;;;;;;;;;;;;;;;;5096244;28;19912;-75
2022/05/24 09:06:49;;;;;;;;;;;;;;;;;;5095095;28;20011;-75
2022/05/24 09:09:34;;;;;;;;;;;;;;;;;;5082004;28;19909;-75
2022/05/24 09:12:20;;;;;;;;;;;;;;;;;;5088958;28;20343;-74
2022/05/24 09:15:06;;;;;;;;;;;;;;;;;;5096765;28;19954;-74
2022/05/24 09:17:51;;;;;;;;;;;;;;;;;;5094963;28;20003;-75
2022/05/24 09:20:38;;;;;;;;;;;;;;;;;;5088835;28;19908;-75
2022/05/24 09:23:23;;;;;;;;;;;;;;;;;;5098647;28;19947;-74
2022/05/24 09:26:09;;;;;;;;;;;;;;;;;;5094342;28;19938;-74
2022/05/24 09:28:55;;;;;;;;;;;;;;;;;;5065868;28;19908;-69
2022/05/24 09:31:41;;;;;;;;;;;;;;;;;;5095197;28;19908;-77
2022/05/24 09:34:26;;;;;;;;;;;;;;;;;;5091694;28;19908;-78
2022/05/24 09:37:14;;;;;;;;;;;;;;;;;;5096297;28;19916;-77
2022/05/24 09:39:59;;;;;;;;;;;;;;;;;;5094296;28;19995;-77
2022/05/24 09:42:45;;;;;;;;;;;;;;;;;;5094748;28;19951;-78
2022/05/24 09:45:36;;;;;;;;;;;;;;;;;;5094885;28;19909;-78
2022/05/24 09:48:21;;;;;;;;;;;;;;;;;;5094365;28;19908;-62
2022/05/24 09:51:07;;;;;;;;;;;;;;;;;;5080097;28;19908;-75
2022/05/24 09:53:52;;;;;;;;;;;;;;;;;;5085268;28;19955;-74
2022/05/24 09:56:38;;;;;;;;;;;;;;;;;;5099857;28;19927;-75
2022/05/24 09:59:26;;;;;;;;;;;;;;;;;;5100326;28;19995;-74
2022/05/24 10:02:12;;;;;;;;;;;;;;;;;;5094955;28;19908;-75
2022/05/24 10:04:58;;;;;;;;;;;;;;;;;;5092910;28;20266;-68
2022/05/24 10:07:43;;;;;;;;;;;;;;;;;;5094234;28;20355;-69
2022/05/24 10:13:04;;;;;;;;;;;;;;;;;;5875616;22;19967;-67
2022/05/24 10:15:49;;;;;;;;;;;;;;;;;;5110173;22;19920;-66
2022/05/24 10:18:35;;;;;;;;;;;;;;;;;;5075229;28;19917;-66
2022/05/24 10:21:20;;;;;;;;;;;;;;;;;;5071860;28;20362;-65
2022/05/24 10:24:06;;;;;;;;;;;;;;;;;;5074697;28;19920;-66
2022/05/24 10:26:52;;;;;;;;;;;;;;;;;;5069866;28;19946;-66
2022/05/24 10:29:37;;;;;;;;;;;;;;;;;;5073916;28;19924;-67
2022/05/24 10:38:32;;;;;;;;;;;;;;;;;;5073914;28;20337;-70
2022/05/24 10:41:17;;;;;;;;;;;;;;;;;;5073526;28;19913;-71
2022/05/24 10:44:03;;;;;;;;;;;;;;;;;;5073700;28;19916;-69
2022/05/24 10:46:48;;;;;;;;;;;;;;;;;;5074245;28;20006;-72
2022/05/24 10:49:34;;;;;;;;;;;;;;;;;;5080481;28;19917;-72
2022/05/24 10:52:19;;;;;;;;;;;;;;;;;;5047432;28;19913;-72
2022/05/24 10:55:05;;;;;;;;;;;;;;;;;;5073887;28;19920;-72
2022/05/24 10:57:50;;;;;;;;;;;;;;;;;;5074035;28;19921;-73
2022/05/24 11:00:36;;;;;;;;;;;;;;;;;;5073736;28;20294;-73
2022/05/24 11:03:21;;;;;;;;;;;;;;;;;;5073620;28;20009;-72
2022/05/24 11:06:07;;;;;;;;;;;;;;;;;;5073524;28;19921;-69
2022/05/24 11:08:52;;;;;;;;;;;;;;;;;;5073692;28;20007;-72
2022/05/24 11:11:37;;;;;;;;;;;;;;;;;;5073163;28;20015;-72
2022/05/24 11:14:23;;;;;;;;;;;;;;;;;;5068841;28;19946;-71
2022/05/24 11:17:08;;;;;;;;;;;;;;;;;;5066543;28;19920;-70
2022/05/24 11:19:55;;;;;;;;;;;;;;;;;;5078642;28;19912;-71
2022/05/24 11:22:40;;;;;;;;;;;;;;;;;;5070815;28;19913;-73
2022/05/24 11:25:27;;;;;;;;;;;;;;;;;;5073138;28;20392;-67
2022/05/24 11:28:12;;;;;;;;;;;;;;;;;;5073759;28;20313;-62
2022/05/24 11:30:59;;;;;;;;;;;;;;;;;;5073240;28;20375;-66
2022/05/24 11:33:44;;;;;;;;;;;;;;;;;;5073460;28;19925;-62
2022/05/24 11:36:30;;;;;;;;;;;;;;;;;;5073389;28;20351;-62
2022/05/24 11:39:15;;;;;;;;;;;;;;;;;;5073521;28;19962;-61
2022/05/24 11:42:01;;;;;;;;;;;;;;;;;;5073210;28;19916;-69
2022/05/24 11:44:46;;;;;;;;;;;;;;;;;;5073174;28;19955;-63
2022/05/24 11:47:32;;;;;;;;;;;;;;;;;;5070428;28;20444;-62
2022/05/24 11:50:17;;;;;;;;;;;;;;;;;;5071136;28;19916;-62
2022/05/24 11:53:03;;;;;;;;;;;;;;;;;;5078616;28;20327;-62
2022/05/24 11:55:48;;;;;;;;;;;;;;;;;;5070290;28;20282;-62
2022/05/24 11:58:33;;;;;;;;;;;;;;;;;;5065731;28;19913;-62
2022/05/24 12:01:19;;;;;;;;;;;;;;;;;;5069033;28;19946;-71
2022/05/24 12:10:13;;;;;;;;;;;;;;;;;;5070385;28;20266;-72
2022/05/24 12:12:59;;;;;;;;;;;;;;;;;;5070916;28;19923;-72
2022/05/24 12:15:44;;;;;;;;;;;;;;;;;;5070027;28;20315;-72
2022/05/24 12:18:30;;;;;;;;;;;;;;;;;;5072827;28;20007;-73
2022/05/24 12:21:15;;;;;;;;;;;;;;;;;;5073000;28;19917;-72
2022/05/24 12:24:00;;;;;;;;;;;;;;;;;;5080253;28;19946;-72
2022/05/24 12:26:46;;;;;;;;;;;;;;;;;;5078191;28;19912;-72
2022/05/24 12:29:31;;;;;;;;;;;;;;;;;;5076863;28;19916;-71
2022/05/24 12:32:17;;;;;;;;;;;;;;;;;;5077030;28;20343;-71
2022/05/24 12:35:02;;;;;;;;;;;;;;;;;;5076918;28;19924;-71
2022/05/24 12:37:48;;;;;;;;;;;;;;;;;;5071781;28;19927;-64
2022/05/24 12:40:33;;;;;;;;;;;;;;;;;;5076923;28;19916;-66
2022/05/24 12:43:19;;;;;;;;;;;;;;;;;;5076703;28;19944;-67
2022/05/24 12:46:04;;;;;;;;;;;;;;;;;;5076479;28;19920;-66
2022/05/24 12:48:50;;;;;;;;;;;;;;;;;;5061411;28;20061;-66
2022/05/24 12:51:36;;;;;;;;;;;;;;;;;;5076486;28;19928;-64
2022/05/24 12:54:21;;;;;;;;;;;;;;;;;;5075798;28;19964;-66
2022/05/24 12:57:07;;;;;;;;;;;;;;;;;;5083830;28;19924;-73
2022/05/24 12:59:52;;;;;;;;;;;;;;;;;;5075858;28;20324;-72
2022/05/24 13:02:38;;;;;;;;;;;;;;;;;;5061338;28;20007;-71
2022/05/24 13:05:23;;;;;;;;;;;;;;;;;;5075994;28;19912;-71
2022/05/24 13:08:09;;;;;;;;;;;;;;;;;;5069323;28;19974;-71
2022/05/24 13:10:54;;;;;;;;;;;;;;;;;;5073254;28;19920;-71
2022/05/24 13:13:40;;;;;;;;;;;;;;;;;;5073449;28;19917;-73
2022/05/24 13:16:25;;;;;;;;;;;;;;;;;;5073677;28;20335;-69
2022/05/24 13:19:11;;;;;;;;;;;;;;;;;;5075961;28;19928;-70
2022/05/24 13:21:56;;;;;;;;;;;;;;;;;;5075799;28;20409;-71
2022/05/24 13:24:42;;;;;;;;;;;;;;;;;;5075854;28;19916;-71
2022/05/24 13:27:27;;;;;;;;;;;;;;;;;;5079226;28;20209;-71
2022/05/24 13:33:35;;;;;;;;;;;;;;;;;;5076461;28;19921;-65
2022/05/24 13:36:21;;;;;;;;;;;;;;;;;;5074609;28;19920;-73
2022/05/24 13:39:06;;;;;;;;;;;;;;;;;;5075508;28;19942;-73
2022/05/24 13:41:52;;;;;;;;;;;;;;;;;;5075604;28;19916;-75
2022/05/24 13:44:38;;;;;;;;;;;;;;;;;;5075708;28;19913;-75
2022/05/24 13:47:23;;;;;;;;;;;;;;;;;;5055650;28;19917;-75
2022/05/24 13:50:09;;;;;;;;;;;;;;;;;;5055271;28;19917;-75
2022/05/24 13:52:54;;;;;;;;;;;;;;;;;;5056915;28;19913;-68
2022/05/24 13:55:40;;;;;;;;;;;;;;;;;;5056991;28;19917;-67
2022/05/24 13:58:25;;;;;;;;;;;;;;;;;;5055590;28;19921;-68
2022/05/24 14:01:11;;;;;;;;;;;;;;;;;;5062452;28;19978;-68
2022/05/24 14:03:56;;;;;;;;;;;;;;;;;;5054667;28;19917;-67
2022/05/24 14:06:42;;;;;;;;;;;;;;;;;;5054540;28;20015;-67
2022/05/24 14:09:27;;;;;;;;;;;;;;;;;;5054753;28;19944;-73
2022/05/24 14:12:13;;;;;;;;;;;;;;;;;;5054680;28;19917;-62
2022/05/24 14:14:58;;;;;;;;;;;;;;;;;;5056786;28;19992;-62
2022/05/24 14:17:44;;;;;;;;;;;;;;;;;;5074168;28;19920;-62
2022/05/24 14:20:29;;;;;;;;;;;;;;;;;;5075116;28;19919;-62
2022/05/24 14:23:14;;;;;;;;;;;;;;;;;;5075013;28;19962;-61
2022/05/24 14:26:00;;;;;;;;;;;;;;;;;;5074759;28;20294;-62
2022/05/24 14:28:45;;;;;;;;;;;;;;;;;;5069363;28;19927;-75
2022/05/24 14:31:31;;;;;;;;;;;;;;;;;;5076593;28;19974;-61
2022/05/24 14:34:16;;;;;;;;;;;;;;;;;;5077696;28;19913;-60
2022/05/24 14:37:03;;;;;;;;;;;;;;;;;;5074264;28;19920;-61
2022/05/24 14:39:50;;;;;;;;;;;;;;;;;;5073754;28;20364;-61
2022/05/24 14:42:35;;;;;;;;;;;;;;;;;;5073981;28;20389;-60
2022/05/24 14:45:21;;;;;;;;;;;;;;;;;;5073886;28;19916;-61
2022/05/24 14:48:06;;;;;;;;;;;;;;;;;;5071355;28;19995;-61
2022/05/24 14:50:52;;;;;;;;;;;;;;;;;;5071620;28;19970;-62
2022/05/24 14:53:37;;;;;;;;;;;;;;;;;;5071472;28;19916;-62
2022/05/24 14:56:23;;;;;;;;;;;;;;;;;;5071182;28;19916;-61
2022/05/24 14:59:08;;;;;;;;;;;;;;;;;;5071948;28;20011;-61
2022/05/24 15:01:53;;;;;;;;;;;;;;;;;;5071810;28;19920;-61
2022/05/24 15:04:39;;;;;;;;;;;;;;;;;;5079023;28;19974;-60
2022/05/24 15:16:37;;;;;;;;;;;;;;;;;;5073641;28;19974;-66
2022/05/24 15:19:22;;;;;;;;;;;;;;;;;;5073593;28;19948;-67
2022/05/24 15:22:08;;;;;;;;;;;;;;;;;;5073683;28;19924;-66
2022/05/24 15:24:53;;;;;;;;;;;;;;;;;;5073502;28;19916;-73
2022/05/24 15:27:39;;;;;;;;;;;;;;;;;;5073423;28;19924;-67
2022/05/24 15:30:24;;;;;;;;;;;;;;;;;;5073584;28;20335;-66
2022/05/24 15:33:09;;;;;;;;;;;;;;;;;;5073485;28;19920;-67
2022/05/24 15:35:55;;;;;;;;;;;;;;;;;;5078805;28;19952;-66
2022/05/24 15:38:41;;;;;;;;;;;;;;;;;;5074532;28;20356;-67
2022/05/24 15:41:27;;;;;;;;;;;;;;;;;;5073300;28;19920;-63
2022/05/24 15:44:13;;;;;;;;;;;;;;;;;;5072876;28;20309;-68
2022/05/24 15:46:59;;;;;;;;;;;;;;;;;;5070443;28;20374;-67
2022/05/24 15:49:44;;;;;;;;;;;;;;;;;;5070291;28;20271;-67
2022/05/24 15:52:30;;;;;;;;;;;;;;;;;;5065404;28;19951;-68
2022/05/24 15:55:15;;;;;;;;;;;;;;;;;;5070353;28;19917;-66
2022/05/24 15:58:00;;;;;;;;;;;;;;;;;;5070773;28;19921;-67
2022/05/24 16:00:46;;;;;;;;;;;;;;;;;;5070502;28;19916;-62
2022/05/24 16:03:32;;;;;;;;;;;;;;;;;;5070306;28;19917;-67
2022/05/24 16:12:25;;;;;;;;;;;;;;;;;;5070810;28;19916;-67
2022/05/24 16:15:11;;;;;;;;;;;;;;;;;;5070254;28;20392;-67
2022/05/24 16:17:56;;;;;;;;;;;;;;;;;;5072399;28;19921;-63
2022/05/24 16:20:41;;;;;;;;;;;;;;;;;;5073046;28;19966;-66
2022/05/24 16:23:27;;;;;;;;;;;;;;;;;;5072732;28;19917;-67
2022/05/24 16:26:12;;;;;;;;;;;;;;;;;;5072805;28;19917;-67
2022/05/24 16:28:58;;;;;;;;;;;;;;;;;;5072953;28;19909;-68
2022/05/24 16:31:43;;;;;;;;;;;;;;;;;;5072586;28;19916;-69
2022/05/24 16:34:29;;;;;;;;;;;;;;;;;;5072925;28;19923;-67
2022/05/24 16:37:14;;;;;;;;;;;;;;;;;;5072819;28;19962;-65
2022/05/24 16:40:00;;;;;;;;;;;;;;;;;;5078516;28;19916;-72
2022/05/24 16:42:45;;;;;;;;;;;;;;;;;;5073603;28;20015;-71
2022/05/24 16:45:31;;;;;;;;;;;;;;;;;;5070424;28;19916;-71
2022/05/24 16:48:16;;;;;;;;;;;;;;;;;;5069861;28;19958;-71
2022/05/24 16:51:02;;;;;;;;;;;;;;;;;;5070050;28;20010;-72
2022/05/24 16:53:48;;;;;;;;;;;;;;;;;;5069336;28;19998;-73
2022/05/24 16:59:38;;;;;;;;;;;;;;;;;;5070880;28;20319;-70
2022/05/24 17:02:23;;;;;;;;;;;;;;;;;;5069756;28;19916;-71
2022/05/24 17:05:09;;;;;;;;;;;;;;;;;;5068439;28;19923;-70
2022/05/24 17:07:54;;;;;;;;;;;;;;;;;;5055876;28;19916;-70
2022/05/24 17:10:41;;;;;;;;;;;;;;;;;;5072689;28;19916;-70
2022/05/24 17:13:27;;;;;;;;;;;;;;;;;;5080073;28;19916;-62
2022/05/24 17:16:12;;;;;;;;;;;;;;;;;;5073065;28;19963;-73
2022/05/24 17:18:58;;;;;;;;;;;;;;;;;;5076357;28;20286;-73
2022/05/24 17:21:43;;;;;;;;;;;;;;;;;;5074784;28;19917;-72
2022/05/24 17:24:29;;;;;;;;;;;;;;;;;;5075632;28;20409;-72
2022/05/24 17:27:14;;;;;;;;;;;;;;;;;;5075370;28;19916;-73
2022/05/24 17:30:00;;;;;;;;;;;;;;;;;;5072667;28;19992;-74
2022/05/24 17:32:45;;;;;;;;;;;;;;;;;;5061495;28;19917;-68
2022/05/24 17:35:31;;;;;;;;;;;;;;;;;;5105135;22;19949;-67
2022/05/24 17:38:16;;;;;;;;;;;;;;;;;;5093992;28;20338;-66
2022/05/24 17:41:02;;;;;;;;;;;;;;;;;;5094259;28;19920;-68
2022/05/24 17:43:47;;;;;;;;;;;;;;;;;;5100209;28;19918;-67
2022/05/24 17:46:32;;;;;;;;;;;;;;;;;;5095444;28;19920;-66
2022/05/24 17:49:18;;;;;;;;;;;;;;;;;;5094532;28;19916;-66
2022/05/24 17:52:03;;;;;;;;;;;;;;;;;;5079297;28;19912;-76
2022/05/24 17:54:49;;;;;;;;;;;;;;;;;;5079255;28;19957;-64
2022/05/24 17:57:34;;;;;;;;;;;;;;;;;;5095024;28;19967;-64
2022/05/24 18:00:20;;;;;;;;;;;;;;;;;;5094612;28;20328;-64
2022/05/24 18:03:05;;;;;;;;;;;;;;;;;;5094135;28;19923;-64
2022/05/24 18:05:51;;;;;;;;;;;;;;;;;;5094416;28;19942;-63
2022/05/24 18:08:36;;;;;;;;;;;;;;;;;;5079985;28;19924;-68
2022/05/24 18:11:22;;;;;;;;;;;;;;;;;;5094814;28;19920;-69
2022/05/24 18:14:08;;;;;;;;;;;;;;;;;;5093907;28;20053;-67
2022/05/24 18:16:53;;;;;;;;;;;;;;;;;;5092707;28;19920;-66
2022/05/24 18:19:39;;;;;;;;;;;;;;;;;;5079162;28;19916;-68
2022/05/24 18:22:24;;;;;;;;;;;;;;;;;;5092744;28;20254;-67
2022/05/24 18:25:10;;;;;;;;;;;;;;;;;;5092766;28;19920;-67
2022/05/24 18:34:04;;;;;;;;;;;;;;;;;;5093617;28;19916;-66
2022/05/24 18:36:49;;;;;;;;;;;;;;;;;;5092800;28;19963;-66
2022/05/24 18:39:35;;;;;;;;;;;;;;;;;;5093394;28;19916;-66
2022/05/24 18:42:20;;;;;;;;;;;;;;;;;;5092739;28;19939;-67
2022/05/24 18:45:06;;;;;;;;;;;;;;;;;;5090432;28;19916;-66
2022/05/24 18:47:51;;;;;;;;;;;;;;;;;;5064616;28;19912;-76
2022/05/24 18:50:37;;;;;;;;;;;;;;;;;;5075658;28;20003;-69
2022/05/24 18:53:22;;;;;;;;;;;;;;;;;;5074144;28;20433;-68
2022/05/24 18:56:08;;;;;;;;;;;;;;;;;;5073551;28;20002;-69
2022/05/24 18:58:53;;;;;;;;;;;;;;;;;;5073135;28;20366;-69
2022/05/24 19:01:40;;;;;;;;;;;;;;;;;;5073797;28;19916;-69
2022/05/24 19:04:25;;;;;;;;;;;;;;;;;;5072826;28;20375;-70
2022/05/24 19:07:17;;;;;;;;;;;;;;;;;;5073792;28;19995;-69
2022/05/24 19:10:02;;;;;;;;;;;;;;;;;;5057851;28;19916;-68
2022/05/24 19:12:48;;;;;;;;;;;;;;;;;;5072654;28;20381;-68
2022/05/24 19:15:33;;;;;;;;;;;;;;;;;;5073582;28;19949;-66
2022/05/24 19:18:19;;;;;;;;;;;;;;;;;;5092524;28;20270;-68
2022/05/24 19:21:04;;;;;;;;;;;;;;;;;;5099492;28;19912;-69
2022/05/24 19:23:50;;;;;;;;;;;;;;;;;;5092129;28;19989;-68
2022/05/24 19:26:36;;;;;;;;;;;;;;;;;;5091931;28;19920;-65
2022/05/24 19:29:21;;;;;;;;;;;;;;;;;;5093154;28;20188;-66
2022/05/24 19:32:06;;;;;;;;;;;;;;;;;;5091786;28;20372;-65
2022/05/24 19:34:54;;;;;;;;;;;;;;;;;;5091574;28;19923;-64
2022/05/24 19:37:40;;;;;;;;;;;;;;;;;;5077235;28;20054;-65
2022/05/24 19:43:30;;;;;;;;;;;;;;;;;;5092470;28;19916;-67
2022/05/24 19:46:15;;;;;;;;;;;;;;;;;;5078530;28;19983;-75
2022/05/24 19:49:01;;;;;;;;;;;;;;;;;;5072757;28;19916;-75
2022/05/24 19:51:47;;;;;;;;;;;;;;;;;;5078336;28;20132;-74
2022/05/24 19:54:33;;;;;;;;;;;;;;;;;;5073190;28;20044;-75
2022/05/24 19:57:18;;;;;;;;;;;;;;;;;;5072241;28;19920;-74
2022/05/24 20:00:03;;;;;;;;;;;;;;;;;;5072369;28;19916;-67
2022/05/24 20:02:49;;;;;;;;;;;;;;;;;;5072516;28;20033;-74
2022/05/24 20:05:34;;;;;;;;;;;;;;;;;;5072943;28;20007;-76
2022/05/24 20:08:21;;;;;;;;;;;;;;;;;;5072731;28;20283;-75
2022/05/24 20:11:07;;;;;;;;;;;;;;;;;;5071743;28;19916;-75